Time;durP1;ratioP1;P1;durP2;ratioP2;P2;SDS_P1;SDS_P2;PMS_P1;PMS_P2;Temp;Humidity;BMP_temperature;BMP_pressure;BME280_temperature;BME280_humidity;BME280_pressure;Samples;Min_cycle;Max_cycle;Signal;HPM_P1;HPM_P2
2023/04/14 00:00:12;;;;;;;;;;;;;;;30.99;71.94;100883.63;5061913;28;66469;-41
2023/04/14 00:02:43;;;;;;;;;;;;;;;30.99;73.03;100884.47;5074998;27;70097;-41
2023/04/14 00:05:14;;;;;;;;;;;;;;;30.97;74.91;100897.38;5077580;28;66824;-43
2023/04/14 00:07:44;;;;;;;;;;;;;;;30.94;76.93;100887.81;5078420;27;69409;-42
2023/04/14 00:10:15;;;;;;;;;;;;;;;30.92;77.05;100889.09;5079716;27;66978;-42
2023/04/14 00:12:45;;;;;;;;;;;;;;;30.94;76.93;100898.66;5078793;27;70606;-42
2023/04/14 00:15:15;;;;;;;;;;;;;;;30.98;75.72;100909.91;5080547;27;66082;-42
2023/04/14 00:17:45;;;;;;;;;;;;;;;31.00;75.33;100913.19;5078909;27;70808;-42
2023/04/14 00:20:15;;;;;;;;;;;;;;;30.71;74.85;100872.13;5077790;27;67494;-41
2023/04/14 00:22:46;;;;;;;;;;;;;;;31.03;74.21;100918.16;5077305;27;70318;-41
2023/04/14 00:25:16;;;;;;;;;;;;;;;31.03;74.24;100923.59;5077079;27;65719;-43
2023/04/14 00:27:46;;;;;;;;;;;;;;;31.03;74.26;100920.88;5076252;27;70104;-41
2023/04/14 00:30:17;;;;;;;;;;;;;;;31.05;74.45;100932.34;5077304;27;66594;-43
2023/04/14 00:32:47;;;;;;;;;;;;;;;31.08;73.96;100926.47;5075281;27;70543;-41
2023/04/14 00:35:17;;;;;;;;;;;;;;;31.09;74.35;100936.28;5073336;28;65681;-41
2023/04/14 00:37:47;;;;;;;;;;;;;;;31.09;73.96;100932.72;5076784;27;70139;-43
2023/04/14 00:40:17;;;;;;;;;;;;;;;31.13;74.67;100939.38;5078504;28;65601;-42
2023/04/14 00:42:48;;;;;;;;;;;;;;;31.12;74.69;100943.97;5074193;27;70037;-43
2023/04/14 00:45:18;;;;;;;;;;;;;;;31.13;74.15;100939.38;5076751;27;66410;-44
2023/04/14 00:47:49;;;;;;;;;;;;;;;31.14;72.91;100938.31;5076686;27;69574;-43
2023/04/14 00:50:20;;;;;;;;;;;;;;;31.20;72.33;100942.00;5039347;28;66963;-42
2023/04/14 00:52:51;;;;;;;;;;;;;;;31.23;71.88;100937.00;5077380;27;69220;-44
2023/04/14 00:55:21;;;;;;;;;;;;;;;31.27;71.15;100942.81;5079200;27;66440;-43
2023/04/14 00:57:52;;;;;;;;;;;;;;;31.31;70.95;100944.81;5077972;27;70113;-45
2023/04/14 01:00:22;;;;;;;;;;;;;;;31.34;70.43;100946.25;5079209;27;67256;-43
2023/04/14 01:02:53;;;;;;;;;;;;;;;31.36;70.53;100942.31;5077598;27;70384;-44
2023/04/14 01:05:24;;;;;;;;;;;;;;;31.39;70.09;100954.59;5093944;27;66114;-44
2023/04/14 01:07:54;;;;;;;;;;;;;;;31.44;69.95;100953.94;5056486;28;69942;-45
2023/04/14 01:10:29;;;;;;;;;;;;;;;31.45;69.73;100961.84;5062571;27;66484;-44
2023/04/14 01:13:14;;;;;;;;;;;;;;;31.47;69.84;100959.75;5094879;27;69600;-44
2023/04/14 01:15:57;;;;;;;;;;;;;;;31.50;69.50;100964.72;5060617;27;66953;-44
2023/04/14 01:18:35;;;;;;;;;;;;;;;31.51;69.63;100958.25;5073151;27;70666;-44
2023/04/14 01:21:10;;;;;;;;;;;;;;;31.53;69.70;100966.97;5081390;27;66282;-43
2023/04/14 01:23:46;;;;;;;;;;;;;;;31.55;69.26;100967.59;5075681;27;69045;-44
2023/04/14 01:26:25;;;;;;;;;;;;;;;31.57;69.18;100961.97;5078990;27;66653;-44
2023/04/14 01:29:06;;;;;;;;;;;;;;;31.60;69.13;100961.50;5078793;28;69726;-44
2023/04/14 01:31:40;;;;;;;;;;;;;;;31.60;69.16;100962.34;5063422;27;66072;-43
2023/04/14 01:34:12;;;;;;;;;;;;;;;31.62;68.69;100972.94;5076815;27;69851;-43
2023/04/14 01:36:52;;;;;;;;;;;;;;;31.63;68.88;100971.91;5061560;27;66579;-43
2023/04/14 01:39:24;;;;;;;;;;;;;;;31.66;68.60;100970.63;5080973;27;70843;-45
2023/04/14 01:42:01;;;;;;;;;;;;;;;31.67;68.71;100977.69;5061294;28;66579;-43
2023/04/14 01:44:32;;;;;;;;;;;;;;;31.68;68.80;100979.34;5062605;27;69771;-44
2023/04/14 01:47:07;;;;;;;;;;;;;;;31.69;68.63;100986.44;5061235;28;66317;-45
2023/04/14 01:49:39;;;;;;;;;;;;;;;31.70;68.73;100988.09;5059720;27;69654;-44
2023/04/14 01:52:11;;;;;;;;;;;;;;;31.72;68.59;100983.28;5041716;28;65445;-44
2023/04/14 01:54:42;;;;;;;;;;;;;;;31.73;68.69;100983.09;5078011;27;71393;-43
2023/04/14 01:57:15;;;;;;;;;;;;;;;31.75;68.48;100988.25;5061402;27;66508;-43
2023/04/14 01:59:47;;;;;;;;;;;;;;;31.75;68.09;100990.97;5055918;28;69384;-43
2023/04/14 02:02:17;;;;;;;;;;;;;;;31.76;68.13;100979.06;5059133;27;65843;-43
2023/04/14 02:04:49;;;;;;;;;;;;;;;31.77;68.20;100978.03;5073889;27;70748;-43
2023/04/14 02:07:20;;;;;;;;;;;;;;;31.79;68.10;100986.78;5052749;28;66762;-43
2023/04/14 02:09:55;;;;;;;;;;;;;;;31.80;67.63;100977.56;5056179;28;70746;-44
2023/04/14 02:12:27;;;;;;;;;;;;;;;31.81;67.46;100973.81;5080129;27;66599;-43
2023/04/14 02:14:59;;;;;;;;;;;;;;;31.82;67.59;100964.63;5075056;27;70660;-44
2023/04/14 02:17:30;;;;;;;;;;;;;;;31.84;67.73;100967.91;5090169;27;65576;-45
2023/04/14 02:20:01;;;;;;;;;;;;;;;31.86;67.40;100971.25;5049603;28;68666;-43
2023/04/14 02:22:31;;;;;;;;;;;;;;;31.88;67.49;100971.03;5090715;27;67162;-44
2023/04/14 02:25:01;;;;;;;;;;;;;;;31.90;67.12;100969.75;5077689;27;69344;-44
2023/04/14 02:27:36;;;;;;;;;;;;;;;31.91;67.11;100967.88;5077157;27;66489;-43
2023/04/14 02:30:11;;;;;;;;;;;;;;;31.93;67.01;100963.91;5067417;27;70122;-43
2023/04/14 02:32:46;;;;;;;;;;;;;;;31.94;67.07;100962.84;5094039;27;66721;-44
2023/04/14 02:35:18;;;;;;;;;;;;;;;31.96;66.85;100959.91;5075433;27;70197;-44
2023/04/14 02:37:52;;;;;;;;;;;;;;;31.97;66.55;100954.25;5079792;27;67250;-47
2023/04/14 02:40:28;;;;;;;;;;;;;;;32.00;66.55;100951.09;5076398;27;70490;-43
2023/04/14 02:43:04;;;;;;;;;;;;;;;32.02;66.45;100940.84;5076682;27;66871;-42
2023/04/14 02:45:35;;;;;;;;;;;;;;;32.04;66.24;100943.34;5070065;27;69944;-43
2023/04/14 02:48:08;;;;;;;;;;;;;;;32.05;66.47;100943.09;5075507;27;66118;-43
2023/04/14 02:50:52;;;;;;;;;;;;;;;32.08;66.11;100936.38;5077924;27;69432;-43
2023/04/14 02:53:25;;;;;;;;;;;;;;;32.10;66.29;100934.28;5087339;27;66292;-43
2023/04/14 02:56:14;;;;;;;;;;;;;;;32.12;65.99;100928.63;5058854;28;70538;-43
2023/04/14 02:58:47;;;;;;;;;;;;;;;32.15;65.90;100928.16;5091225;27;66148;-43
2023/04/14 03:01:18;;;;;;;;;;;;;;;32.17;66.08;100929.59;5058852;28;69886;-42
2023/04/14 03:03:52;;;;;;;;;;;;;;;32.20;65.86;100931.03;5092545;27;66212;-43
2023/04/14 03:06:25;;;;;;;;;;;;;;;32.20;65.78;100926.41;5077267;27;70385;-43
2023/04/14 03:08:56;;;;;;;;;;;;;;;32.24;65.94;100929.53;5078411;27;66084;-43
2023/04/14 03:11:28;;;;;;;;;;;;;;;32.26;65.67;100928.25;5094353;27;69081;-44
2023/04/14 03:13:59;;;;;;;;;;;;;;;32.28;65.62;100925.28;5079567;27;65675;-44
2023/04/14 03:16:31;;;;;;;;;;;;;;;32.30;65.54;100916.91;5078603;27;70249;-43
2023/04/14 03:19:03;;;;;;;;;;;;;;;32.31;65.35;100913.97;5092536;27;66167;-43
2023/04/14 03:21:35;;;;;;;;;;;;;;;32.33;65.48;100906.41;5055608;28;69666;-43
2023/04/14 03:24:06;;;;;;;;;;;;;;;32.36;65.38;100905.13;5058249;27;66431;-43
2023/04/14 03:26:37;;;;;;;;;;;;;;;32.37;65.23;100907.59;5073890;27;70112;-43
2023/04/14 03:29:08;;;;;;;;;;;;;;;32.39;65.06;100902.78;5077352;27;66912;-44
2023/04/14 03:31:39;;;;;;;;;;;;;;;32.40;65.13;100890.03;5060056;27;70689;-44
2023/04/14 03:34:10;;;;;;;;;;;;;;;32.41;64.89;100892.53;5057525;28;66147;-43
2023/04/14 03:36:44;;;;;;;;;;;;;;;32.44;64.94;100886.63;5057423;27;69850;-44
2023/04/14 03:39:16;;;;;;;;;;;;;;;32.46;64.94;100887.28;5056123;28;66734;-43
2023/04/14 03:41:50;;;;;;;;;;;;;;;32.49;64.65;100883.28;5090782;27;70062;-44
2023/04/14 03:44:24;;;;;;;;;;;;;;;32.52;64.61;100884.69;5058213;27;66981;-43
2023/04/14 03:46:54;;;;;;;;;;;;;;;32.52;64.38;100871.94;5086435;27;70875;-43
2023/04/14 03:49:26;;;;;;;;;;;;;;;32.57;64.52;100879.38;5058281;27;66486;-45
2023/04/14 03:51:58;;;;;;;;;;;;;;;32.58;64.35;100875.63;5058379;28;70811;-44
2023/04/14 03:54:31;;;;;;;;;;;;;;;32.58;64.22;100875.63;5074595;27;66706;-44
2023/04/14 03:57:05;;;;;;;;;;;;;;;32.59;64.06;100874.53;5057351;27;69592;-44
2023/04/14 03:59:37;;;;;;;;;;;;;;;32.60;64.08;100868.06;5083574;27;66190;-44
2023/04/14 04:02:08;;;;;;;;;;;;;;;32.61;63.95;100858.84;5076629;27;69966;-44
2023/04/14 04:04:40;;;;;;;;;;;;;;;32.61;63.71;100854.25;5090079;27;65864;-43
2023/04/14 04:07:14;;;;;;;;;;;;;;;32.62;63.93;100852.34;5088319;27;70391;-44
2023/04/14 04:09:45;;;;;;;;;;;;;;;32.63;63.99;100851.31;5089909;27;66909;-45
2023/04/14 04:12:17;;;;;;;;;;;;;;;32.64;63.94;100842.09;5076450;27;70089;-43
2023/04/14 04:14:48;;;;;;;;;;;;;;;32.65;63.75;100843.72;5092615;27;67019;-43
2023/04/14 04:17:22;;;;;;;;;;;;;;;32.66;63.61;100829.13;5093758;27;70696;-43
2023/04/14 04:19:54;;;;;;;;;;;;;;;32.68;63.68;100821.53;5076116;27;66674;-44
2023/04/14 04:22:25;;;;;;;;;;;;;;;32.70;63.72;100824.84;5059310;27;70476;-44
2023/04/14 04:24:57;;;;;;;;;;;;;;;32.71;63.65;100812.94;5076351;28;66158;-44
2023/04/14 04:27:32;;;;;;;;;;;;;;;32.72;63.45;100812.69;5057192;28;70503;-44
2023/04/14 04:30:12;;;;;;;;;;;;;;;32.75;63.34;100805.97;5096509;27;66912;-45
2023/04/14 04:32:42;;;;;;;;;;;;;;;32.78;63.52;100800.06;5075118;27;69846;-44
2023/04/14 04:35:14;;;;;;;;;;;;;;;32.78;63.10;100789.19;5078657;27;66618;-45
2023/04/14 04:37:47;;;;;;;;;;;;;;;32.81;63.36;100783.28;5062534;28;71017;-44
2023/04/14 04:40:18;;;;;;;;;;;;;;;32.83;63.25;100769.47;5055406;27;67087;-45
2023/04/14 04:42:51;;;;;;;;;;;;;;;32.85;63.16;100767.38;5062607;28;69985;-45
2023/04/14 04:45:40;;;;;;;;;;;;;;;32.87;63.09;100765.22;5062813;28;67461;-44
2023/04/14 04:48:11;;;;;;;;;;;;;;;32.88;63.22;100756.84;5054021;27;70643;-44
2023/04/14 04:50:44;;;;;;;;;;;;;;;32.90;63.02;100743.00;5061911;28;66178;-44
2023/04/14 04:53:14;;;;;;;;;;;;;;;32.92;62.95;100746.31;5093789;27;70599;-43
2023/04/14 04:55:45;;;;;;;;;;;;;;;32.93;62.93;100739.81;5080842;27;66249;-42
2023/04/14 04:58:15;;;;;;;;;;;;;;;32.93;62.79;100737.94;5079077;27;69820;-43
2023/04/14 05:00:46;;;;;;;;;;;;;;;32.97;62.74;100730.13;5077590;27;67003;-44
2023/04/14 05:03:16;;;;;;;;;;;;;;;32.99;62.67;100719.00;5078896;27;69516;-44
2023/04/14 05:05:47;;;;;;;;;;;;;;;33.01;62.78;100717.75;5076809;27;66090;-52
2023/04/14 05:08:17;;;;;;;;;;;;;;;33.02;62.82;100708.53;5079729;27;70805;-44
2023/04/14 05:10:47;;;;;;;;;;;;;;;33.06;62.67;100708.88;5060672;28;66260;-43
2023/04/14 05:13:18;;;;;;;;;;;;;;;33.08;62.41;100707.56;5078272;27;69306;-44
2023/04/14 05:15:48;;;;;;;;;;;;;;;33.10;62.49;100699.19;5078845;27;66916;-44
2023/04/14 05:18:19;;;;;;;;;;;;;;;33.12;62.41;100691.59;5079268;28;69156;-44
2023/04/14 05:20:50;;;;;;;;;;;;;;;33.17;62.19;100683.56;5079577;27;66241;-43
2023/04/14 05:23:20;;;;;;;;;;;;;;;33.19;62.27;100673.28;5062352;28;70065;-43
2023/04/14 05:25:50;;;;;;;;;;;;;;;33.22;61.93;100663.81;5080973;27;66685;-46
2023/04/14 05:28:21;;;;;;;;;;;;;;;33.23;61.90;100668.19;5075720;27;70037;-43
2023/04/14 05:30:51;;;;;;;;;;;;;;;33.25;61.91;100666.88;5076708;27;65747;-44
2023/04/14 05:33:22;;;;;;;;;;;;;;;33.28;62.05;100663.69;5081564;27;70340;-43
2023/04/14 05:35:53;;;;;;;;;;;;;;;33.27;61.89;100643.00;5079985;27;66724;-43
2023/04/14 05:38:25;;;;;;;;;;;;;;;33.15;62.09;100606.88;5080969;27;69811;-44
2023/04/14 05:40:56;;;;;;;;;;;;;;;33.33;61.77;100631.16;5093534;27;66133;-44
2023/04/14 05:43:26;;;;;;;;;;;;;;;33.35;61.59;100620.88;5077910;27;70686;-43
2023/04/14 05:45:57;;;;;;;;;;;;;;;33.38;61.63;100623.09;5094176;27;66033;-44
2023/04/14 05:48:29;;;;;;;;;;;;;;;33.40;61.60;100611.13;5078186;27;69650;-43
2023/04/14 05:50:59;;;;;;;;;;;;;;;33.42;61.36;100609.00;5078362;27;67097;-45
2023/04/14 05:53:29;;;;;;;;;;;;;;;33.46;61.44;100599.28;5079878;27;70046;-44
2023/04/14 05:56:00;;;;;;;;;;;;;;;33.46;61.22;100589.25;5063876;27;66731;-44
2023/04/14 05:58:31;;;;;;;;;;;;;;;33.49;61.09;100579.75;5073731;27;70311;-46
2023/04/14 06:01:02;;;;;;;;;;;;;;;33.51;61.06;100564.84;5079403;27;66885;-44
2023/04/14 06:03:34;;;;;;;;;;;;;;;33.54;60.94;100558.97;5078349;27;70888;-44
2023/04/14 06:06:08;;;;;;;;;;;;;;;33.57;60.74;100554.91;5061615;28;66530;-44
2023/04/14 06:08:42;;;;;;;;;;;;;;;33.60;60.94;100551.72;5080228;27;68672;-45
2023/04/14 06:11:13;;;;;;;;;;;;;;;33.62;60.75;100544.13;5076232;27;65970;-43
2023/04/14 06:13:43;;;;;;;;;;;;;;;33.66;60.67;100548.00;5080631;27;69747;-44
2023/04/14 06:16:13;;;;;;;;;;;;;;;33.68;60.62;100547.75;5078101;27;65275;-45
2023/04/14 06:18:44;;;;;;;;;;;;;;;33.70;60.64;100541.00;5093813;27;69159;-44
2023/04/14 06:21:14;;;;;;;;;;;;;;;33.74;60.28;100538.59;5079791;27;66524;-44
2023/04/14 06:23:44;;;;;;;;;;;;;;;33.75;60.30;100538.34;5077944;27;69850;-43
2023/04/14 06:26:15;;;;;;;;;;;;;;;33.77;60.16;100536.22;5071693;27;66627;-45
2023/04/14 06:28:45;;;;;;;;;;;;;;;33.79;60.17;100528.63;5079102;27;70513;-45
2023/04/14 06:31:16;;;;;;;;;;;;;;;33.82;59.92;100521.84;5080763;27;67486;-45
2023/04/14 06:33:47;;;;;;;;;;;;;;;33.85;60.38;100515.09;5078856;27;70732;-44
2023/04/14 06:36:17;;;;;;;;;;;;;;;33.86;60.05;100514.03;5079187;27;66056;-44
2023/04/14 06:38:47;;;;;;;;;;;;;;;33.88;60.29;100509.16;5079521;27;70423;-44
2023/04/14 06:41:17;;;;;;;;;;;;;;;33.91;59.93;100500.50;5077567;27;65732;-44
2023/04/14 06:43:47;;;;;;;;;;;;;;;33.94;60.20;100500.00;5076882;27;69931;-44
2023/04/14 06:46:20;;;;;;;;;;;;;;;33.96;59.83;100492.38;5076722;27;66779;-44
2023/04/14 06:48:51;;;;;;;;;;;;;;;33.99;59.74;100489.16;5078620;27;69944;-46
2023/04/14 06:51:21;;;;;;;;;;;;;;;34.02;59.87;100480.53;5078452;27;66632;-45
2023/04/14 06:53:52;;;;;;;;;;;;;;;34.05;59.31;100474.59;5078501;27;70219;-45
2023/04/14 06:56:22;;;;;;;;;;;;;;;34.07;59.81;100467.00;5078436;27;66349;-46
2023/04/14 06:58:52;;;;;;;;;;;;;;;34.11;59.31;100476.31;5077532;27;69790;-45
2023/04/14 07:01:22;;;;;;;;;;;;;;;34.12;59.50;100472.50;5079452;27;66995;-44
2023/04/14 07:03:53;;;;;;;;;;;;;;;34.16;59.04;100476.38;5060409;28;70314;-44
2023/04/14 07:06:24;;;;;;;;;;;;;;;34.19;59.19;100473.16;5091926;27;65618;-45
2023/04/14 07:08:55;;;;;;;;;;;;;;;34.21;59.31;100473.75;5078693;27;70811;-44
2023/04/14 07:11:25;;;;;;;;;;;;;;;34.23;59.13;100466.13;5078580;28;66385;-44
2023/04/14 07:13:55;;;;;;;;;;;;;;;34.24;59.22;100465.06;5079333;27;70757;-44
2023/04/14 07:16:26;;;;;;;;;;;;;;;34.28;58.86;100465.38;5077017;27;66331;-44
2023/04/14 07:18:56;;;;;;;;;;;;;;;34.30;59.34;100454.22;5094113;27;69273;-44
2023/04/14 07:21:26;;;;;;;;;;;;;;;34.31;58.98;100442.25;5073972;27;65750;-44
2023/04/14 07:23:56;;;;;;;;;;;;;;;34.33;58.87;100440.94;5071839;27;70234;-44
2023/04/14 07:26:27;;;;;;;;;;;;;;;34.35;58.82;100427.91;5077134;28;66084;-44
2023/04/14 07:28:57;;;;;;;;;;;;;;;34.38;58.81;100427.38;5061713;28;71139;-44
2023/04/14 07:31:28;;;;;;;;;;;;;;;34.41;58.97;100420.59;5075485;27;65675;-45
2023/04/14 07:33:58;;;;;;;;;;;;;;;34.44;59.05;100412.75;5075263;27;69542;-44
2023/04/14 07:36:29;;;;;;;;;;;;;;;34.48;58.53;100426.66;5076595;27;66754;-45
2023/04/14 07:38:59;;;;;;;;;;;;;;;34.53;58.59;100429.44;5075447;27;68352;-43
2023/04/14 07:41:30;;;;;;;;;;;;;;;34.55;58.51;100410.94;5076209;27;66544;-45
2023/04/14 07:44:00;;;;;;;;;;;;;;;34.59;58.75;100411.28;5077654;27;70844;-46
2023/04/14 07:46:31;;;;;;;;;;;;;;;34.60;58.25;100402.88;5076232;27;66455;-44
2023/04/14 07:49:01;;;;;;;;;;;;;;;34.62;58.37;100417.03;5075187;27;70375;-43
2023/04/14 07:51:31;;;;;;;;;;;;;;;34.63;58.80;100418.69;5059381;28;65416;-44
2023/04/14 07:54:02;;;;;;;;;;;;;;;34.64;58.80;100412.16;5073490;27;70099;-44
2023/04/14 07:56:32;;;;;;;;;;;;;;;34.67;58.32;100410.81;5057727;28;66220;-49
2023/04/14 07:59:02;;;;;;;;;;;;;;;34.67;58.31;100417.09;5075061;27;69949;-44
2023/04/14 08:01:33;;;;;;;;;;;;;;;34.69;58.68;100406.75;5076057;27;67234;-44
2023/04/14 08:04:03;;;;;;;;;;;;;;;34.72;58.29;100404.59;5077773;27;69165;-44
2023/04/14 08:06:43;;;;;;;;;;;;;;;34.74;58.59;100402.44;5076746;27;67001;-44
2023/04/14 08:09:13;;;;;;;;;;;;;;;34.77;58.29;100396.47;5058668;28;70243;-44
2023/04/14 08:11:44;;;;;;;;;;;;;;;34.79;58.69;100397.03;5080290;28;66900;-44
2023/04/14 08:14:14;;;;;;;;;;;;;;;34.82;58.41;100391.06;5058655;28;69847;-44
2023/04/14 08:16:44;;;;;;;;;;;;;;;34.84;58.19;100388.91;5079549;27;65712;-46
2023/04/14 08:19:14;;;;;;;;;;;;;;;34.86;58.27;100395.75;5075281;28;69314;-46
2023/04/14 08:21:44;;;;;;;;;;;;;;;34.87;58.21;100375.56;5077701;27;66998;-44
2023/04/14 08:24:16;;;;;;;;;;;;;;;34.89;58.60;100384.31;5077185;27;70734;-44
2023/04/14 08:26:46;;;;;;;;;;;;;;;34.92;58.45;100386.53;5080250;27;66365;-45
2023/04/14 08:29:17;;;;;;;;;;;;;;;34.93;58.10;100385.44;5078493;27;70412;-45
2023/04/14 08:31:49;;;;;;;;;;;;;;;34.96;58.12;100375.91;5060635;27;66443;-46
2023/04/14 08:34:32;;;;;;;;;;;;;;;34.77;58.05;100341.97;5057080;28;70216;-44
2023/04/14 08:37:03;;;;;;;;;;;;;;;34.99;58.61;100363.66;5080494;27;65654;-44
2023/04/14 08:39:33;;;;;;;;;;;;;;;35.00;58.65;100357.97;5080341;27;70227;-43
2023/04/14 08:42:04;;;;;;;;;;;;;;;35.02;58.21;100350.38;5061221;28;67014;-44
2023/04/14 08:44:34;;;;;;;;;;;;;;;35.05;58.16;100351.72;5080214;27;70384;-45
2023/04/14 08:47:05;;;;;;;;;;;;;;;35.06;58.29;100358.88;5080546;27;66330;-44
2023/04/14 08:50:00;;;;;;;;;;;;;;;35.07;58.68;100361.31;5051763;28;69838;-44
2023/04/14 08:52:31;;;;;;;;;;;;;;;35.08;58.67;100360.25;5078905;27;66005;-45
2023/04/14 08:55:03;;;;;;;;;;;;;;;35.09;58.15;100361.88;5078281;27;69901;-45
2023/04/14 08:57:34;;;;;;;;;;;;;;;35.12;58.22;100363.25;5093939;27;65461;-45
2023/04/14 09:00:05;;;;;;;;;;;;;;;35.13;58.23;100364.91;5079411;27;69303;-44
2023/04/14 09:02:38;;;;;;;;;;;;;;;35.14;58.73;100359.19;5080236;27;66747;-45
2023/04/14 09:05:10;;;;;;;;;;;;;;;35.14;58.80;100370.09;5080280;27;70456;-44
2023/04/14 09:07:41;;;;;;;;;;;;;;;34.95;58.29;100336.13;5075062;27;66058;-45
2023/04/14 09:10:13;;;;;;;;;;;;;;;35.17;58.74;100365.22;5080551;27;69203;-45
2023/04/14 09:12:44;;;;;;;;;;;;;;;35.16;58.33;100374.47;5076362;27;66569;-45
2023/04/14 09:15:15;;;;;;;;;;;;;;;35.18;58.88;100375.03;5078889;27;70514;-44
2023/04/14 09:17:45;;;;;;;;;;;;;;;35.18;58.51;100375.03;5064015;27;65583;-44
2023/04/14 09:20:16;;;;;;;;;;;;;;;35.20;58.43;100383.78;5060689;28;70460;-45
2023/04/14 09:23:09;;;;;;;;;;;;;;;34.94;60.62;100378.09;5080156;27;66088;-45
2023/04/14 09:25:41;;;;;;;;;;;;;;;34.80;61.67;100385.03;5076667;27;70516;-46
2023/04/14 09:28:11;;;;;;;;;;;;;;;34.67;61.90;100380.84;5059516;28;66082;-44
2023/04/14 09:30:42;;;;;;;;;;;;;;;34.58;62.99;100380.50;5076346;27;70382;-44
2023/04/14 09:33:21;;;;;;;;;;;;;;;34.51;63.54;100381.75;5074894;27;67523;-45
2023/04/14 09:35:53;;;;;;;;;;;;;;;34.45;63.61;100389.03;5075834;27;70350;-45
2023/04/14 09:38:33;;;;;;;;;;;;;;;34.41;63.76;100393.38;5077802;27;65250;-45
2023/04/14 09:41:07;;;;;;;;;;;;;;;34.39;64.66;100390.91;5058642;28;70186;-46
2023/04/14 09:43:38;;;;;;;;;;;;;;;34.36;65.23;100390.59;5081457;27;65910;-48
2023/04/14 09:46:08;;;;;;;;;;;;;;;34.37;65.80;100397.66;5077704;27;70381;-53
2023/04/14 09:48:55;;;;;;;;;;;;;;;34.34;65.67;100400.91;5058990;28;67688;-47
2023/04/14 09:51:29;;;;;;;;;;;;;;;34.36;66.23;100412.38;5056019;27;70574;-44
2023/04/14 09:54:03;;;;;;;;;;;;;;;34.34;66.53;100414.53;5076449;27;66433;-46
2023/04/14 09:56:34;;;;;;;;;;;;;;;34.32;66.30;100416.66;5079474;27;70104;-46
2023/04/14 09:59:04;;;;;;;;;;;;;;;34.31;66.48;100421.28;5080602;28;66395;-45
2023/04/14 10:01:35;;;;;;;;;;;;;;;34.29;67.03;100430.78;5080317;27;69787;-45
2023/04/14 10:04:20;;;;;;;;;;;;;;;34.28;67.43;100431.88;5078941;27;66993;-44
2023/04/14 10:06:55;;;;;;;;;;;;;;;34.28;67.54;100440.88;5077036;27;70188;-46
2023/04/14 10:09:29;;;;;;;;;;;;;;;34.22;67.45;100439.97;5077634;27;65355;-46
2023/04/14 10:12:13;;;;;;;;;;;;;;;34.19;67.10;100445.13;5062193;28;70206;-46
2023/04/14 10:14:43;;;;;;;;;;;;;;;34.17;67.33;100448.09;5081742;27;66103;-46
2023/04/14 10:17:14;;;;;;;;;;;;;;;34.13;67.22;100440.66;5080359;27;70011;-45
2023/04/14 10:19:44;;;;;;;;;;;;;;;34.12;67.23;100437.13;5074553;27;67104;-47
2023/04/14 10:22:16;;;;;;;;;;;;;;;34.09;67.55;100434.91;5075545;27;70480;-45
2023/04/14 10:24:47;;;;;;;;;;;;;;;34.10;68.18;100442.03;5081240;27;66023;-46
2023/04/14 10:27:18;;;;;;;;;;;;;;;34.10;68.26;100447.47;5083638;27;69683;-46
2023/04/14 10:29:48;;;;;;;;;;;;;;;34.10;68.60;100449.34;5081212;27;65937;-46
2023/04/14 10:32:19;;;;;;;;;;;;;;;34.10;68.19;100447.47;5079471;27;69868;-45
2023/04/14 10:34:56;;;;;;;;;;;;;;;34.10;68.09;100443.91;5078034;27;65854;-45
2023/04/14 10:37:27;;;;;;;;;;;;;;;34.06;68.56;100440.88;5074315;27;69863;-45
2023/04/14 10:39:58;;;;;;;;;;;;;;;34.06;69.12;100446.31;5079786;27;66765;-45
2023/04/14 10:42:31;;;;;;;;;;;;;;;34.05;68.82;100454.75;5081744;27;68701;-46
2023/04/14 10:45:06;;;;;;;;;;;;;;;34.06;69.13;100462.63;5077985;27;66370;-46
2023/04/14 10:47:39;;;;;;;;;;;;;;;34.17;67.88;100461.69;5074027;27;70382;-46
2023/04/14 10:50:11;;;;;;;;;;;;;;;34.28;68.01;100462.66;5080063;27;66134;-45
2023/04/14 10:52:57;;;;;;;;;;;;;;;34.35;67.95;100466.00;5074905;27;69824;-45
2023/04/14 10:55:28;;;;;;;;;;;;;;;34.41;67.63;100475.06;5075512;27;66132;-45
2023/04/14 10:58:05;;;;;;;;;;;;;;;34.44;67.67;100480.00;5077722;27;70305;-45
2023/04/14 11:00:39;;;;;;;;;;;;;;;34.48;67.46;100486.56;5060387;27;66987;-45
2023/04/14 11:03:10;;;;;;;;;;;;;;;34.50;67.14;100489.88;5058128;28;69121;-46
2023/04/14 11:05:47;;;;;;;;;;;;;;;34.50;66.92;100484.41;5078476;27;66688;-46
2023/04/14 11:08:32;;;;;;;;;;;;;;;34.51;67.00;100499.69;5056133;28;69989;-46
2023/04/14 11:11:05;;;;;;;;;;;;;;;34.51;66.37;100501.59;5075765;27;65592;-46
2023/04/14 11:13:37;;;;;;;;;;;;;;;34.52;66.08;100492.31;5078468;27;70170;-45
2023/04/14 11:16:09;;;;;;;;;;;;;;;34.51;66.49;100494.22;5077332;27;67210;-45
2023/04/14 11:18:44;;;;;;;;;;;;;;;34.51;66.58;100491.50;5060993;28;69001;-46
2023/04/14 11:21:17;;;;;;;;;;;;;;;34.50;66.12;100500.75;5076831;27;66736;-46
2023/04/14 11:23:48;;;;;;;;;;;;;;;34.47;66.19;100493.94;5077057;27;70541;-45
2023/04/14 11:26:18;;;;;;;;;;;;;;;34.48;65.80;100489.28;5042991;28;66470;-47
2023/04/14 11:28:52;;;;;;;;;;;;;;;34.47;66.03;100501.28;5057512;27;70022;-45
2023/04/14 11:31:26;;;;;;;;;;;;;;;34.46;65.54;100514.06;5055051;27;66216;-45
2023/04/14 11:33:56;;;;;;;;;;;;;;;34.46;65.93;100515.94;5074683;27;69378;-45
2023/04/14 11:36:26;;;;;;;;;;;;;;;34.44;65.45;100515.41;5073604;27;66094;-45
2023/04/14 11:38:58;;;;;;;;;;;;;;;34.41;65.20;100518.63;5089993;27;70665;-45
2023/04/14 11:41:29;;;;;;;;;;;;;;;34.41;65.15;100526.81;5073326;27;66341;-45
2023/04/14 11:43:59;;;;;;;;;;;;;;;34.41;65.18;100534.97;5074549;27;70592;-45
2023/04/14 11:46:30;;;;;;;;;;;;;;;34.39;65.57;100537.94;5075911;27;66315;-45
2023/04/14 11:49:00;;;;;;;;;;;;;;;34.37;65.34;100539.25;5078244;27;70335;-46
2023/04/14 11:51:32;;;;;;;;;;;;;;;34.36;65.18;100543.88;5070958;27;66281;-46
2023/04/14 11:54:02;;;;;;;;;;;;;;;34.35;65.01;100535.97;5059977;27;70275;-46
2023/04/14 11:56:33;;;;;;;;;;;;;;;34.33;65.43;100551.75;5074093;27;66410;-45
2023/04/14 11:59:05;;;;;;;;;;;;;;;34.32;65.44;100548.19;5057583;27;71129;-46
2023/04/14 12:01:35;;;;;;;;;;;;;;;34.31;65.07;100553.88;5076629;28;66067;-45
2023/04/14 12:04:06;;;;;;;;;;;;;;;34.29;65.30;100561.47;5082804;27;69839;-46
2023/04/14 12:06:38;;;;;;;;;;;;;;;34.29;65.21;100564.19;5075747;27;66756;-46
2023/04/14 12:09:09;;;;;;;;;;;;;;;34.25;65.63;100575.59;5070207;27;69657;-46
2023/04/14 12:11:39;;;;;;;;;;;;;;;34.24;65.60;100578.56;5076459;27;65836;-47
2023/04/14 12:14:10;;;;;;;;;;;;;;;34.21;65.39;100579.91;5076505;27;70704;-45
2023/04/14 12:16:40;;;;;;;;;;;;;;;34.12;66.89;100577.84;5057093;28;65998;-43
2023/04/14 12:19:10;;;;;;;;;;;;;;;33.98;67.92;100585.50;5078581;27;70418;-49
2023/04/14 12:21:41;;;;;;;;;;;;;;;33.90;68.52;100588.63;5061452;28;66254;-45
2023/04/14 12:24:11;;;;;;;;;;;;;;;33.83;69.35;100598.88;5061012;27;69784;-44
2023/04/14 12:26:42;;;;;;;;;;;;;;;33.59;69.49;100566.38;5077066;27;66059;-53
2023/04/14 12:29:13;;;;;;;;;;;;;;;33.71;70.16;100605.22;5061004;28;70515;-45
2023/04/14 12:31:43;;;;;;;;;;;;;;;33.65;70.98;100606.19;5073216;27;66684;-46
2023/04/14 12:34:18;;;;;;;;;;;;;;;33.51;69.64;100602.91;5075657;27;70287;-45
2023/04/14 12:36:52;;;;;;;;;;;;;;;33.30;67.30;100618.06;5076451;27;66835;-46
2023/04/14 12:39:24;;;;;;;;;;;;;;;33.07;64.69;100629.00;5072496;27;70941;-45
2023/04/14 12:41:57;;;;;;;;;;;;;;;32.88;62.67;100629.16;5075016;27;66193;-44
2023/04/14 12:44:27;;;;;;;;;;;;;;;32.72;60.71;100649.72;5072410;27;69016;-45
2023/04/14 12:46:57;;;;;;;;;;;;;;;32.56;59.02;100645.03;5059134;28;64692;-46
2023/04/14 12:49:31;;;;;;;;;;;;;;;32.44;57.23;100647.72;5079145;27;70329;-45
2023/04/14 12:52:03;;;;;;;;;;;;;;;32.29;55.44;100639.22;5082915;27;67070;-46
2023/04/14 12:54:46;;;;;;;;;;;;;;;32.22;54.42;100635.78;5079612;27;69706;-45
2023/04/14 12:57:20;;;;;;;;;;;;;;;32.08;53.27;100637.09;5092798;27;65617;-44
2023/04/14 12:59:51;;;;;;;;;;;;;;;31.95;52.29;100647.06;5072950;27;70686;-44